sensor_id;sensor_type;location;lat;lon;timestamp;P1;durP1;ratioP1;P2;durP2;ratioP2
419;SDS011;42600;54.408;13.016;2022-08-19T00:00:07;12.63;;;7.37;;
419;SDS011;42600;54.408;13.016;2022-08-19T00:02:35;16.00;;;7.27;;
419;SDS011;42600;54.408;13.016;2022-08-19T00:05:02;11.00;;;6.50;;
419;SDS011;42600;54.408;13.016;2022-08-19T00:07:30;13.63;;;6.63;;
419;SDS011;42600;54.408;13.016;2022-08-19T00:09:56;20.90;;;7.73;;
419;SDS011;42600;54.408;13.016;2022-08-19T00:12:24;16.83;;;7.97;;
419;SDS011;42600;54.408;13.016;2022-08-19T00:14:51;20.77;;;8.70;;
419;SDS011;42600;54.408;13.016;2022-08-19T00:17:19;14.87;;;8.43;;
419;SDS011;42600;54.408;13.016;2022-08-19T00:19:45;26.73;;;9.37;;
419;SDS011;42600;54.408;13.016;2022-08-19T00:22:12;14.63;;;6.63;;
419;SDS011;42600;54.408;13.016;2022-08-19T00:24:39;17.87;;;9.07;;
419;SDS011;42600;54.408;13.016;2022-08-19T00:27:08;16.03;;;8.27;;
419;SDS011;42600;54.408;13.016;2022-08-19T00:29:36;18.00;;;8.60;;
419;SDS011;42600;54.408;13.016;2022-08-19T00:32:03;15.47;;;7.53;;
419;SDS011;42600;54.408;13.016;2022-08-19T00:34:31;19.83;;;9.90;;
419;SDS011;42600;54.408;13.016;2022-08-19T00:36:58;20.00;;;8.33;;
419;SDS011;42600;54.408;13.016;2022-08-19T00:39:25;23.70;;;10.13;;
419;SDS011;42600;54.408;13.016;2022-08-19T00:41:51;16.90;;;9.47;;
419;SDS011;42600;54.408;13.016;2022-08-19T00:44:19;23.13;;;10.03;;
419;SDS011;42600;54.408;13.016;2022-08-19T00:46:49;18.10;;;9.23;;
419;SDS011;42600;54.408;13.016;2022-08-19T00:49:19;27.50;;;10.93;;
419;SDS011;42600;54.408;13.016;2022-08-19T00:51:48;17.73;;;9.60;;
419;SDS011;42600;54.408;13.016;2022-08-19T00:54:18;18.10;;;9.87;;
419;SDS011;42600;54.408;13.016;2022-08-19T00:56:46;15.30;;;9.57;;
419;SDS011;42600;54.408;13.016;2022-08-19T00:59:13;22.23;;;10.07;;
419;SDS011;42600;54.408;13.016;2022-08-19T01:01:41;21.07;;;9.80;;
419;SDS011;42600;54.408;13.016;2022-08-19T01:04:10;28.23;;;10.20;;
419;SDS011;42600;54.408;13.016;2022-08-19T01:06:37;27.57;;;9.37;;
419;SDS011;42600;54.408;13.016;2022-08-19T01:09:05;17.67;;;8.93;;
419;SDS011;42600;54.408;13.016;2022-08-19T01:11:33;15.17;;;9.30;;
419;SDS011;42600;54.408;13.016;2022-08-19T01:14:02;22.60;;;10.83;;
419;SDS011;42600;54.408;13.016;2022-08-19T01:16:29;23.30;;;9.23;;
419;SDS011;42600;54.408;13.016;2022-08-19T01:18:57;19.17;;;8.57;;
419;SDS011;42600;54.408;13.016;2022-08-19T01:21:26;18.37;;;9.07;;
419;SDS011;42600;54.408;13.016;2022-08-19T01:24:01;14.83;;;8.90;;
419;SDS011;42600;54.408;13.016;2022-08-19T01:26:28;18.40;;;8.87;;
419;SDS011;42600;54.408;13.016;2022-08-19T01:28:57;17.97;;;10.03;;
419;SDS011;42600;54.408;13.016;2022-08-19T01:31:26;19.20;;;9.00;;
419;SDS011;42600;54.408;13.016;2022-08-19T01:33:56;19.93;;;9.60;;
419;SDS011;42600;54.408;13.016;2022-08-19T01:36:25;20.90;;;8.37;;
419;SDS011;42600;54.408;13.016;2022-08-19T01:38:55;23.37;;;10.10;;
419;SDS011;42600;54.408;13.016;2022-08-19T01:41:25;18.57;;;9.10;;
419;SDS011;42600;54.408;13.016;2022-08-19T01:43:52;20.77;;;9.80;;
419;SDS011;42600;54.408;13.016;2022-08-19T01:46:19;26.77;;;12.93;;
419;SDS011;42600;54.408;13.016;2022-08-19T01:48:46;26.80;;;11.30;;
419;SDS011;42600;54.408;13.016;2022-08-19T01:51:13;23.93;;;12.10;;
419;SDS011;42600;54.408;13.016;2022-08-19T01:53:40;27.50;;;13.93;;
419;SDS011;42600;54.408;13.016;2022-08-19T01:56:07;31.37;;;16.53;;
419;SDS011;42600;54.408;13.016;2022-08-19T01:58:36;23.53;;;12.43;;
419;SDS011;42600;54.408;13.016;2022-08-19T02:01:11;33.70;;;13.33;;
419;SDS011;42600;54.408;13.016;2022-08-19T02:03:38;50.10;;;20.50;;
419;SDS011;42600;54.408;13.016;2022-08-19T02:06:05;38.70;;;15.67;;
419;SDS011;42600;54.408;13.016;2022-08-19T02:08:33;50.67;;;18.77;;
419;SDS011;42600;54.408;13.016;2022-08-19T02:11:01;47.00;;;19.50;;
419;SDS011;42600;54.408;13.016;2022-08-19T02:13:28;43.87;;;16.90;;
419;SDS011;42600;54.408;13.016;2022-08-19T02:15:56;30.77;;;14.70;;
419;SDS011;42600;54.408;13.016;2022-08-19T02:18:23;37.17;;;17.23;;
419;SDS011;42600;54.408;13.016;2022-08-19T02:20:51;39.40;;;16.77;;
419;SDS011;42600;54.408;13.016;2022-08-19T02:23:18;41.73;;;18.73;;
419;SDS011;42600;54.408;13.016;2022-08-19T02:25:45;43.77;;;18.07;;
419;SDS011;42600;54.408;13.016;2022-08-19T02:28:13;39.80;;;19.07;;
419;SDS011;42600;54.408;13.016;2022-08-19T02:30:40;37.27;;;17.40;;
419;SDS011;42600;54.408;13.016;2022-08-19T02:33:09;41.20;;;17.30;;
419;SDS011;42600;54.408;13.016;2022-08-19T02:35:35;39.10;;;15.97;;
419;SDS011;42600;54.408;13.016;2022-08-19T02:38:02;40.63;;;17.10;;
419;SDS011;42600;54.408;13.016;2022-08-19T02:40:50;31.10;;;14.77;;
419;SDS011;42600;54.408;13.016;2022-08-19T02:43:18;41.07;;;16.17;;
419;SDS011;42600;54.408;13.016;2022-08-19T02:45:46;51.97;;;19.60;;
419;SDS011;42600;54.408;13.016;2022-08-19T02:48:14;54.30;;;20.97;;
419;SDS011;42600;54.408;13.016;2022-08-19T02:50:42;49.63;;;23.63;;
419;SDS011;42600;54.408;13.016;2022-08-19T02:53:09;47.57;;;19.10;;
419;SDS011;42600;54.408;13.016;2022-08-19T02:55:41;67.90;;;25.40;;
419;SDS011;42600;54.408;13.016;2022-08-19T02:58:09;71.67;;;27.57;;
419;SDS011;42600;54.408;13.016;2022-08-19T03:00:36;71.90;;;26.47;;
419;SDS011;42600;54.408;13.016;2022-08-19T03:03:08;54.13;;;23.10;;
419;SDS011;42600;54.408;13.016;2022-08-19T03:05:36;78.87;;;27.57;;
419;SDS011;42600;54.408;13.016;2022-08-19T03:08:03;54.40;;;20.50;;
419;SDS011;42600;54.408;13.016;2022-08-19T03:10:30;55.63;;;22.73;;
419;SDS011;42600;54.408;13.016;2022-08-19T03:12:57;87.67;;;32.10;;
419;SDS011;42600;54.408;13.016;2022-08-19T03:15:24;80.73;;;32.57;;
419;SDS011;42600;54.408;13.016;2022-08-19T03:17:51;72.13;;;25.77;;
419;SDS011;42600;54.408;13.016;2022-08-19T03:20:17;77.33;;;27.10;;
419;SDS011;42600;54.408;13.016;2022-08-19T03:22:45;51.77;;;20.73;;
419;SDS011;42600;54.408;13.016;2022-08-19T03:25:12;55.57;;;22.40;;
419;SDS011;42600;54.408;13.016;2022-08-19T03:27:39;69.20;;;27.77;;
419;SDS011;42600;54.408;13.016;2022-08-19T03:30:06;76.47;;;26.00;;
419;SDS011;42600;54.408;13.016;2022-08-19T03:32:33;72.13;;;27.40;;
419;SDS011;42600;54.408;13.016;2022-08-19T03:35:00;87.63;;;31.17;;
419;SDS011;42600;54.408;13.016;2022-08-19T03:37:26;86.77;;;29.37;;
419;SDS011;42600;54.408;13.016;2022-08-19T03:39:54;103.77;;;38.47;;
419;SDS011;42600;54.408;13.016;2022-08-19T03:42:21;92.40;;;36.53;;
419;SDS011;42600;54.408;13.016;2022-08-19T03:44:47;72.70;;;28.90;;
419;SDS011;42600;54.408;13.016;2022-08-19T03:47:14;85.53;;;33.50;;
419;SDS011;42600;54.408;13.016;2022-08-19T03:49:42;103.17;;;37.40;;
419;SDS011;42600;54.408;13.016;2022-08-19T03:52:09;82.40;;;33.57;;
419;SDS011;42600;54.408;13.016;2022-08-19T03:54:35;83.40;;;38.20;;
419;SDS011;42600;54.408;13.016;2022-08-19T03:57:04;91.27;;;35.80;;
419;SDS011;42600;54.408;13.016;2022-08-19T03:59:33;81.80;;;31.67;;
419;SDS011;42600;54.408;13.016;2022-08-19T04:02:02;85.53;;;33.03;;
419;SDS011;42600;54.408;13.016;2022-08-19T04:04:34;93.77;;;30.03;;
419;SDS011;42600;54.408;13.016;2022-08-19T04:07:00;98.87;;;34.30;;
419;SDS011;42600;54.408;13.016;2022-08-19T04:09:27;103.10;;;38.97;;
419;SDS011;42600;54.408;13.016;2022-08-19T04:11:54;90.17;;;33.93;;
419;SDS011;42600;54.408;13.016;2022-08-19T04:14:24;93.43;;;34.00;;
419;SDS011;42600;54.408;13.016;2022-08-19T04:16:53;101.73;;;37.50;;
419;SDS011;42600;54.408;13.016;2022-08-19T04:19:20;94.37;;;34.30;;
419;SDS011;42600;54.408;13.016;2022-08-19T04:21:48;80.53;;;29.07;;
419;SDS011;42600;54.408;13.016;2022-08-19T04:24:16;98.17;;;33.60;;
419;SDS011;42600;54.408;13.016;2022-08-19T04:26:44;65.80;;;27.70;;
419;SDS011;42600;54.408;13.016;2022-08-19T04:29:13;52.47;;;18.97;;
419;SDS011;42600;54.408;13.016;2022-08-19T04:31:43;115.13;;;41.43;;
419;SDS011;42600;54.408;13.016;2022-08-19T04:34:11;51.50;;;21.50;;
419;SDS011;42600;54.408;13.016;2022-08-19T04:36:40;101.80;;;35.47;;
419;SDS011;42600;54.408;13.016;2022-08-19T04:39:10;63.37;;;25.00;;
419;SDS011;42600;54.408;13.016;2022-08-19T04:41:38;101.63;;;35.13;;
419;SDS011;42600;54.408;13.016;2022-08-19T04:44:22;103.37;;;37.40;;
419;SDS011;42600;54.408;13.016;2022-08-19T04:46:50;43.17;;;20.80;;
419;SDS011;42600;54.408;13.016;2022-08-19T04:49:17;97.43;;;33.97;;
419;SDS011;42600;54.408;13.016;2022-08-19T04:51:46;96.50;;;33.60;;
419;SDS011;42600;54.408;13.016;2022-08-19T04:54:14;61.97;;;23.37;;
419;SDS011;42600;54.408;13.016;2022-08-19T04:56:41;97.10;;;37.07;;
419;SDS011;42600;54.408;13.016;2022-08-19T04:59:08;41.87;;;15.77;;
419;SDS011;42600;54.408;13.016;2022-08-19T05:01:35;96.93;;;34.20;;
419;SDS011;42600;54.408;13.016;2022-08-19T05:04:04;121.63;;;36.70;;
419;SDS011;42600;54.408;13.016;2022-08-19T05:06:33;97.57;;;35.97;;
419;SDS011;42600;54.408;13.016;2022-08-19T05:09:00;51.83;;;20.80;;
419;SDS011;42600;54.408;13.016;2022-08-19T05:11:29;34.37;;;14.93;;
419;SDS011;42600;54.408;13.016;2022-08-19T05:13:57;90.07;;;34.70;;
419;SDS011;42600;54.408;13.016;2022-08-19T05:16:25;105.50;;;36.40;;
419;SDS011;42600;54.408;13.016;2022-08-19T05:18:52;89.33;;;32.50;;
419;SDS011;42600;54.408;13.016;2022-08-19T05:21:39;67.40;;;23.23;;
419;SDS011;42600;54.408;13.016;2022-08-19T05:24:23;56.83;;;22.47;;
419;SDS011;42600;54.408;13.016;2022-08-19T05:26:51;33.20;;;13.43;;
419;SDS011;42600;54.408;13.016;2022-08-19T05:29:21;79.87;;;28.50;;
419;SDS011;42600;54.408;13.016;2022-08-19T05:31:49;35.03;;;15.90;;
419;SDS011;42600;54.408;13.016;2022-08-19T05:34:17;61.30;;;22.67;;
419;SDS011;42600;54.408;13.016;2022-08-19T05:36:46;101.30;;;34.27;;
419;SDS011;42600;54.408;13.016;2022-08-19T05:39:14;80.63;;;34.20;;
419;SDS011;42600;54.408;13.016;2022-08-19T05:41:42;54.33;;;21.27;;
419;SDS011;42600;54.408;13.016;2022-08-19T05:44:09;33.80;;;16.00;;
419;SDS011;42600;54.408;13.016;2022-08-19T05:46:36;81.30;;;32.57;;
419;SDS011;42600;54.408;13.016;2022-08-19T05:49:04;38.53;;;16.97;;
419;SDS011;42600;54.408;13.016;2022-08-19T05:51:31;89.90;;;34.50;;
419;SDS011;42600;54.408;13.016;2022-08-19T05:54:00;110.53;;;37.07;;
419;SDS011;42600;54.408;13.016;2022-08-19T05:56:27;110.43;;;36.57;;
419;SDS011;42600;54.408;13.016;2022-08-19T05:58:55;56.47;;;23.70;;
419;SDS011;42600;54.408;13.016;2022-08-19T06:01:23;29.93;;;12.90;;
419;SDS011;42600;54.408;13.016;2022-08-19T06:03:52;74.20;;;31.67;;
419;SDS011;42600;54.408;13.016;2022-08-19T06:06:19;91.03;;;33.30;;
419;SDS011;42600;54.408;13.016;2022-08-19T06:08:46;90.50;;;33.50;;
419;SDS011;42600;54.408;13.016;2022-08-19T06:11:18;99.90;;;36.37;;
419;SDS011;42600;54.408;13.016;2022-08-19T06:13:46;94.20;;;32.97;;
419;SDS011;42600;54.408;13.016;2022-08-19T06:16:16;104.00;;;36.70;;
419;SDS011;42600;54.408;13.016;2022-08-19T06:18:47;113.47;;;41.27;;
419;SDS011;42600;54.408;13.016;2022-08-19T06:21:16;70.20;;;23.53;;
419;SDS011;42600;54.408;13.016;2022-08-19T06:23:43;44.10;;;17.60;;
419;SDS011;42600;54.408;13.016;2022-08-19T06:26:11;60.93;;;23.53;;
419;SDS011;42600;54.408;13.016;2022-08-19T06:28:39;48.00;;;19.83;;
419;SDS011;42600;54.408;13.016;2022-08-19T06:31:09;34.93;;;17.07;;
419;SDS011;42600;54.408;13.016;2022-08-19T06:33:36;78.67;;;28.57;;
419;SDS011;42600;54.408;13.016;2022-08-19T06:36:04;108.33;;;35.77;;
419;SDS011;42600;54.408;13.016;2022-08-19T06:38:31;86.83;;;33.40;;
419;SDS011;42600;54.408;13.016;2022-08-19T06:41:02;90.07;;;34.37;;
419;SDS011;42600;54.408;13.016;2022-08-19T06:43:30;75.47;;;25.90;;
419;SDS011;42600;54.408;13.016;2022-08-19T06:45:58;107.20;;;31.53;;
419;SDS011;42600;54.408;13.016;2022-08-19T06:48:26;95.97;;;33.07;;
419;SDS011;42600;54.408;13.016;2022-08-19T06:50:52;62.60;;;24.77;;
419;SDS011;42600;54.408;13.016;2022-08-19T06:53:19;27.90;;;13.20;;
419;SDS011;42600;54.408;13.016;2022-08-19T06:55:45;34.80;;;16.83;;
419;SDS011;42600;54.408;13.016;2022-08-19T06:58:12;73.83;;;28.67;;
419;SDS011;42600;54.408;13.016;2022-08-19T07:00:39;38.43;;;14.57;;
419;SDS011;42600;54.408;13.016;2022-08-19T07:03:07;91.93;;;33.33;;
419;SDS011;42600;54.408;13.016;2022-08-19T07:05:37;87.97;;;32.37;;
419;SDS011;42600;54.408;13.016;2022-08-19T07:08:05;76.57;;;27.40;;
419;SDS011;42600;54.408;13.016;2022-08-19T07:10:32;52.43;;;16.87;;
419;SDS011;42600;54.408;13.016;2022-08-19T07:12:59;44.20;;;16.77;;
419;SDS011;42600;54.408;13.016;2022-08-19T07:15:26;89.90;;;30.43;;
419;SDS011;42600;54.408;13.016;2022-08-19T07:17:53;95.20;;;37.07;;
419;SDS011;42600;54.408;13.016;2022-08-19T07:20:21;91.50;;;32.17;;
419;SDS011;42600;54.408;13.016;2022-08-19T07:22:48;60.87;;;24.10;;
419;SDS011;42600;54.408;13.016;2022-08-19T07:25:15;88.33;;;28.90;;
419;SDS011;42600;54.408;13.016;2022-08-19T07:27:43;85.87;;;29.40;;
419;SDS011;42600;54.408;13.016;2022-08-19T07:30:10;71.50;;;27.47;;
419;SDS011;42600;54.408;13.016;2022-08-19T07:32:38;51.70;;;19.83;;
419;SDS011;42600;54.408;13.016;2022-08-19T07:35:05;88.43;;;29.23;;
419;SDS011;42600;54.408;13.016;2022-08-19T07:37:34;82.33;;;29.77;;
419;SDS011;42600;54.408;13.016;2022-08-19T07:40:02;66.60;;;22.73;;
419;SDS011;42600;54.408;13.016;2022-08-19T07:42:30;88.57;;;31.57;;
419;SDS011;42600;54.408;13.016;2022-08-19T07:44:56;59.37;;;21.60;;
419;SDS011;42600;54.408;13.016;2022-08-19T07:47:23;84.17;;;30.47;;
419;SDS011;42600;54.408;13.016;2022-08-19T07:49:50;93.33;;;29.90;;
419;SDS011;42600;54.408;13.016;2022-08-19T07:52:16;50.77;;;18.40;;
419;SDS011;42600;54.408;13.016;2022-08-19T07:54:44;46.33;;;19.97;;
419;SDS011;42600;54.408;13.016;2022-08-19T07:57:11;20.80;;;9.27;;
419;SDS011;42600;54.408;13.016;2022-08-19T07:59:38;16.93;;;8.93;;
419;SDS011;42600;54.408;13.016;2022-08-19T08:02:05;38.90;;;16.00;;
419;SDS011;42600;54.408;13.016;2022-08-19T08:04:32;30.33;;;12.07;;
419;SDS011;42600;54.408;13.016;2022-08-19T08:07:16;81.23;;;25.87;;
419;SDS011;42600;54.408;13.016;2022-08-19T08:10:02;29.33;;;12.10;;
419;SDS011;42600;54.408;13.016;2022-08-19T08:12:35;53.43;;;16.03;;
419;SDS011;42600;54.408;13.016;2022-08-19T08:15:06;28.17;;;12.30;;
419;SDS011;42600;54.408;13.016;2022-08-19T08:17:35;56.93;;;19.20;;
419;SDS011;42600;54.408;13.016;2022-08-19T08:20:03;75.30;;;28.43;;
419;SDS011;42600;54.408;13.016;2022-08-19T08:22:32;82.83;;;32.20;;
419;SDS011;42600;54.408;13.016;2022-08-19T08:25:19;93.17;;;28.67;;
419;SDS011;42600;54.408;13.016;2022-08-19T08:27:48;84.17;;;30.97;;
419;SDS011;42600;54.408;13.016;2022-08-19T08:30:16;95.70;;;31.23;;
419;SDS011;42600;54.408;13.016;2022-08-19T08:32:44;34.17;;;10.37;;
419;SDS011;42600;54.408;13.016;2022-08-19T08:35:12;73.77;;;26.30;;
419;SDS011;42600;54.408;13.016;2022-08-19T08:37:41;39.00;;;14.70;;
419;SDS011;42600;54.408;13.016;2022-08-19T08:40:12;66.03;;;22.40;;
419;SDS011;42600;54.408;13.016;2022-08-19T08:42:48;35.10;;;14.97;;
419;SDS011;42600;54.408;13.016;2022-08-19T08:45:23;47.80;;;19.33;;
419;SDS011;42600;54.408;13.016;2022-08-19T08:47:50;52.70;;;17.83;;
419;SDS011;42600;54.408;13.016;2022-08-19T08:50:20;43.37;;;14.43;;
419;SDS011;42600;54.408;13.016;2022-08-19T08:52:50;74.43;;;24.60;;
419;SDS011;42600;54.408;13.016;2022-08-19T08:55:24;56.10;;;21.30;;
419;SDS011;42600;54.408;13.016;2022-08-19T08:57:55;58.97;;;20.60;;
419;SDS011;42600;54.408;13.016;2022-08-19T09:00:26;43.80;;;16.60;;
419;SDS011;42600;54.408;13.016;2022-08-19T09:02:55;79.97;;;27.03;;
419;SDS011;42600;54.408;13.016;2022-08-19T09:05:24;43.40;;;16.23;;
419;SDS011;42600;54.408;13.016;2022-08-19T09:07:55;56.90;;;22.00;;
419;SDS011;42600;54.408;13.016;2022-08-19T09:10:30;25.43;;;13.00;;
419;SDS011;42600;54.408;13.016;2022-08-19T09:13:03;59.87;;;24.80;;
419;SDS011;42600;54.408;13.016;2022-08-19T09:15:36;38.80;;;16.03;;
419;SDS011;42600;54.408;13.016;2022-08-19T09:18:07;36.83;;;14.10;;
419;SDS011;42600;54.408;13.016;2022-08-19T09:20:35;33.00;;;14.17;;
419;SDS011;42600;54.408;13.016;2022-08-19T09:23:01;27.13;;;12.73;;
419;SDS011;42600;54.408;13.016;2022-08-19T09:25:29;60.40;;;22.77;;
419;SDS011;42600;54.408;13.016;2022-08-19T09:27:57;55.70;;;19.93;;
419;SDS011;42600;54.408;13.016;2022-08-19T09:30:28;62.27;;;20.23;;
419;SDS011;42600;54.408;13.016;2022-08-19T09:32:56;53.17;;;21.03;;
419;SDS011;42600;54.408;13.016;2022-08-19T09:35:24;61.50;;;22.00;;
419;SDS011;42600;54.408;13.016;2022-08-19T09:37:52;53.10;;;20.50;;
419;SDS011;42600;54.408;13.016;2022-08-19T09:40:19;49.23;;;17.60;;
419;SDS011;42600;54.408;13.016;2022-08-19T09:42:47;52.57;;;21.33;;
419;SDS011;42600;54.408;13.016;2022-08-19T09:45:14;36.20;;;15.00;;
419;SDS011;42600;54.408;13.016;2022-08-19T09:47:42;40.93;;;16.50;;
419;SDS011;42600;54.408;13.016;2022-08-19T09:50:10;38.83;;;16.50;;
419;SDS011;42600;54.408;13.016;2022-08-19T09:52:37;43.10;;;14.63;;
419;SDS011;42600;54.408;13.016;2022-08-19T09:55:05;38.53;;;16.03;;
419;SDS011;42600;54.408;13.016;2022-08-19T09:57:33;47.80;;;17.93;;
419;SDS011;42600;54.408;13.016;2022-08-19T10:00:02;45.37;;;18.93;;
419;SDS011;42600;54.408;13.016;2022-08-19T10:02:30;39.33;;;16.50;;
419;SDS011;42600;54.408;13.016;2022-08-19T10:04:57;47.27;;;17.23;;
419;SDS011;42600;54.408;13.016;2022-08-19T10:07:37;44.90;;;17.83;;
419;SDS011;42600;54.408;13.016;2022-08-19T10:10:05;24.20;;;11.13;;
419;SDS011;42600;54.408;13.016;2022-08-19T10:12:34;45.97;;;15.00;;
419;SDS011;42600;54.408;13.016;2022-08-19T10:15:03;40.10;;;13.90;;
419;SDS011;42600;54.408;13.016;2022-08-19T10:17:31;25.03;;;10.90;;
419;SDS011;42600;54.408;13.016;2022-08-19T10:19:59;33.17;;;10.10;;
419;SDS011;42600;54.408;13.016;2022-08-19T10:22:27;32.87;;;11.40;;
419;SDS011;42600;54.408;13.016;2022-08-19T10:24:54;22.17;;;10.20;;
419;SDS011;42600;54.408;13.016;2022-08-19T10:27:21;24.73;;;9.70;;
419;SDS011;42600;54.408;13.016;2022-08-19T10:29:48;20.90;;;8.30;;
419;SDS011;42600;54.408;13.016;2022-08-19T10:32:16;19.63;;;9.10;;
419;SDS011;42600;54.408;13.016;2022-08-19T10:34:43;23.13;;;9.90;;
419;SDS011;42600;54.408;13.016;2022-08-19T10:37:09;18.80;;;8.57;;
419;SDS011;42600;54.408;13.016;2022-08-19T10:39:36;16.40;;;7.90;;
419;SDS011;42600;54.408;13.016;2022-08-19T10:42:04;15.73;;;6.90;;
419;SDS011;42600;54.408;13.016;2022-08-19T10:44:32;18.93;;;7.47;;
419;SDS011;42600;54.408;13.016;2022-08-19T10:47:01;12.23;;;7.27;;
419;SDS011;42600;54.408;13.016;2022-08-19T10:49:30;18.60;;;5.63;;
419;SDS011;42600;54.408;13.016;2022-08-19T10:52:17;13.30;;;5.13;;
419;SDS011;42600;54.408;13.016;2022-08-19T10:55:02;10.80;;;6.00;;
419;SDS011;42600;54.408;13.016;2022-08-19T10:57:48;15.97;;;6.47;;
419;SDS011;42600;54.408;13.016;2022-08-19T11:00:15;11.17;;;5.20;;
419;SDS011;42600;54.408;13.016;2022-08-19T11:02:42;11.80;;;5.73;;
419;SDS011;42600;54.408;13.016;2022-08-19T11:05:10;9.63;;;5.90;;
419;SDS011;42600;54.408;13.016;2022-08-19T11:07:37;16.93;;;6.00;;
419;SDS011;42600;54.408;13.016;2022-08-19T11:10:04;12.47;;;6.30;;
419;SDS011;42600;54.408;13.016;2022-08-19T11:12:32;15.37;;;6.50;;
419;SDS011;42600;54.408;13.016;2022-08-19T11:14:59;12.07;;;4.97;;
419;SDS011;42600;54.408;13.016;2022-08-19T11:17:25;13.03;;;5.90;;
419;SDS011;42600;54.408;13.016;2022-08-19T11:19:52;11.70;;;5.40;;
419;SDS011;42600;54.408;13.016;2022-08-19T11:22:19;12.40;;;5.97;;
419;SDS011;42600;54.408;13.016;2022-08-19T11:24:46;17.30;;;7.10;;
419;SDS011;42600;54.408;13.016;2022-08-19T11:27:13;12.40;;;5.80;;
419;SDS011;42600;54.408;13.016;2022-08-19T11:29:39;14.97;;;7.03;;
419;SDS011;42600;54.408;13.016;2022-08-19T11:32:07;9.97;;;5.50;;
419;SDS011;42600;54.408;13.016;2022-08-19T11:34:36;15.20;;;7.00;;
419;SDS011;42600;54.408;13.016;2022-08-19T11:37:04;19.17;;;8.90;;
419;SDS011;42600;54.408;13.016;2022-08-19T11:39:35;14.97;;;6.73;;
419;SDS011;42600;54.408;13.016;2022-08-19T11:42:02;13.10;;;6.50;;
419;SDS011;42600;54.408;13.016;2022-08-19T11:44:52;13.30;;;6.10;;
419;SDS011;42600;54.408;13.016;2022-08-19T11:47:19;8.87;;;5.40;;
419;SDS011;42600;54.408;13.016;2022-08-19T11:49:46;18.13;;;8.30;;
419;SDS011;42600;54.408;13.016;2022-08-19T11:52:12;14.50;;;7.47;;
419;SDS011;42600;54.408;13.016;2022-08-19T11:54:40;11.93;;;6.63;;
419;SDS011;42600;54.408;13.016;2022-08-19T11:57:07;12.97;;;6.27;;
419;SDS011;42600;54.408;13.016;2022-08-19T11:59:33;19.03;;;8.67;;
419;SDS011;42600;54.408;13.016;2022-08-19T12:02:00;12.47;;;6.70;;
419;SDS011;42600;54.408;13.016;2022-08-19T12:04:26;22.97;;;9.80;;
419;SDS011;42600;54.408;13.016;2022-08-19T12:06:53;23.43;;;9.00;;
419;SDS011;42600;54.408;13.016;2022-08-19T12:09:19;28.80;;;10.73;;
419;SDS011;42600;54.408;13.016;2022-08-19T12:11:48;30.00;;;11.87;;
419;SDS011;42600;54.408;13.016;2022-08-19T12:14:15;24.77;;;11.13;;
419;SDS011;42600;54.408;13.016;2022-08-19T12:16:43;17.70;;;8.93;;
419;SDS011;42600;54.408;13.016;2022-08-19T12:19:11;40.27;;;13.27;;
419;SDS011;42600;54.408;13.016;2022-08-19T12:21:38;33.97;;;14.60;;
419;SDS011;42600;54.408;13.016;2022-08-19T12:24:05;19.83;;;9.27;;
419;SDS011;42600;54.408;13.016;2022-08-19T12:26:32;34.93;;;13.23;;
419;SDS011;42600;54.408;13.016;2022-08-19T12:29:01;33.70;;;13.07;;
419;SDS011;42600;54.408;13.016;2022-08-19T12:31:28;34.30;;;15.40;;
419;SDS011;42600;54.408;13.016;2022-08-19T12:33:55;33.97;;;14.57;;
419;SDS011;42600;54.408;13.016;2022-08-19T12:36:22;38.50;;;14.20;;
419;SDS011;42600;54.408;13.016;2022-08-19T12:38:49;26.17;;;11.30;;
419;SDS011;42600;54.408;13.016;2022-08-19T12:41:17;24.70;;;12.13;;
419;SDS011;42600;54.408;13.016;2022-08-19T12:43:46;31.77;;;13.30;;
419;SDS011;42600;54.408;13.016;2022-08-19T12:46:15;35.33;;;15.37;;
419;SDS011;42600;54.408;13.016;2022-08-19T12:48:43;25.57;;;11.23;;
419;SDS011;42600;54.408;13.016;2022-08-19T12:51:11;35.77;;;14.17;;
419;SDS011;42600;54.408;13.016;2022-08-19T12:53:40;26.97;;;13.17;;
419;SDS011;42600;54.408;13.016;2022-08-19T12:56:07;14.10;;;7.37;;
419;SDS011;42600;54.408;13.016;2022-08-19T12:58:34;26.67;;;9.83;;
419;SDS011;42600;54.408;13.016;2022-08-19T13:01:05;29.37;;;12.90;;
419;SDS011;42600;54.408;13.016;2022-08-19T13:03:34;34.43;;;12.27;;
419;SDS011;42600;54.408;13.016;2022-08-19T13:06:01;18.53;;;8.80;;
419;SDS011;42600;54.408;13.016;2022-08-19T13:08:28;29.47;;;14.87;;
419;SDS011;42600;54.408;13.016;2022-08-19T13:10:55;33.43;;;13.50;;
419;SDS011;42600;54.408;13.016;2022-08-19T13:13:23;36.43;;;15.60;;
419;SDS011;42600;54.408;13.016;2022-08-19T13:15:50;36.20;;;15.20;;
419;SDS011;42600;54.408;13.016;2022-08-19T13:18:18;32.80;;;15.80;;
419;SDS011;42600;54.408;13.016;2022-08-19T13:20:45;39.23;;;14.40;;
419;SDS011;42600;54.408;13.016;2022-08-19T13:23:12;29.40;;;13.80;;
419;SDS011;42600;54.408;13.016;2022-08-19T13:25:39;28.50;;;13.03;;
419;SDS011;42600;54.408;13.016;2022-08-19T13:28:05;32.20;;;14.00;;
419;SDS011;42600;54.408;13.016;2022-08-19T13:30:32;34.80;;;15.57;;
419;SDS011;42600;54.408;13.016;2022-08-19T13:33:17;16.23;;;9.73;;
419;SDS011;42600;54.408;13.016;2022-08-19T13:35:47;14.03;;;8.50;;
419;SDS011;42600;54.408;13.016;2022-08-19T13:38:16;25.83;;;11.60;;
419;SDS011;42600;54.408;13.016;2022-08-19T13:40:43;19.33;;;9.70;;
419;SDS011;42600;54.408;13.016;2022-08-19T13:43:11;23.10;;;10.83;;
419;SDS011;42600;54.408;13.016;2022-08-19T13:45:38;25.63;;;13.47;;
419;SDS011;42600;54.408;13.016;2022-08-19T13:48:05;30.33;;;13.77;;
419;SDS011;42600;54.408;13.016;2022-08-19T13:50:34;30.10;;;13.47;;
419;SDS011;42600;54.408;13.016;2022-08-19T13:53:05;26.93;;;12.47;;
419;SDS011;42600;54.408;13.016;2022-08-19T13:55:31;34.57;;;14.93;;
419;SDS011;42600;54.408;13.016;2022-08-19T13:57:59;33.63;;;14.70;;
419;SDS011;42600;54.408;13.016;2022-08-19T14:00:27;27.90;;;11.90;;
419;SDS011;42600;54.408;13.016;2022-08-19T14:02:55;32.73;;;14.17;;
419;SDS011;42600;54.408;13.016;2022-08-19T14:05:22;42.30;;;15.80;;
419;SDS011;42600;54.408;13.016;2022-08-19T14:07:50;40.67;;;17.03;;
419;SDS011;42600;54.408;13.016;2022-08-19T14:10:19;37.20;;;18.07;;
419;SDS011;42600;54.408;13.016;2022-08-19T14:12:46;30.47;;;15.67;;
419;SDS011;42600;54.408;13.016;2022-08-19T14:15:13;40.77;;;16.20;;
419;SDS011;42600;54.408;13.016;2022-08-19T14:17:41;31.97;;;15.10;;
419;SDS011;42600;54.408;13.016;2022-08-19T14:20:09;19.20;;;10.37;;
419;SDS011;42600;54.408;13.016;2022-08-19T14:22:38;28.83;;;13.20;;
419;SDS011;42600;54.408;13.016;2022-08-19T14:25:07;24.93;;;11.80;;
419;SDS011;42600;54.408;13.016;2022-08-19T14:27:37;31.23;;;14.57;;
419;SDS011;42600;54.408;13.016;2022-08-19T14:30:06;21.33;;;9.27;;
419;SDS011;42600;54.408;13.016;2022-08-19T14:32:34;19.27;;;9.70;;
419;SDS011;42600;54.408;13.016;2022-08-19T14:35:01;20.67;;;10.77;;
419;SDS011;42600;54.408;13.016;2022-08-19T14:37:27;23.43;;;10.90;;
419;SDS011;42600;54.408;13.016;2022-08-19T14:39:54;27.37;;;12.23;;
419;SDS011;42600;54.408;13.016;2022-08-19T14:42:21;20.50;;;10.30;;
419;SDS011;42600;54.408;13.016;2022-08-19T14:44:49;22.03;;;10.20;;